createdAt,value
2022-09-04T00:02:29.737Z,8.15
2022-09-04T00:05:20.857Z,7.72
2022-09-04T00:07:58.410Z,6.88
2022-09-04T00:11:00.670Z,8.40
2022-09-04T00:13:38.222Z,8.85
2022-09-04T00:16:20.091Z,8.65
2022-09-04T00:18:59.701Z,8.68
2022-09-04T00:22:00.476Z,6.90
2022-09-04T00:24:38.433Z,6.75
2022-09-04T00:27:13.856Z,7.70
2022-09-04T00:30:02.501Z,6.88
2022-09-04T00:33:00.419Z,10.85
2022-09-04T00:35:33.880Z,8.57
2022-09-04T00:38:08.560Z,9.57
2022-09-04T00:40:39.753Z,7.03
2022-09-04T00:43:40.628Z,7.95
2022-09-04T00:46:38.197Z,5.18
2022-09-04T00:49:43.101Z,6.30
2022-09-04T00:52:36.277Z,7.95
2022-09-04T00:55:45.585Z,7.68
2022-09-04T00:58:34.533Z,7.28
2022-09-04T01:01:02.644Z,7.05
2022-09-04T01:03:48.469Z,6.88
2022-09-04T01:06:42.446Z,9.02
2022-09-04T01:09:12.337Z,7.15
2022-09-04T01:11:39.185Z,6.22
2022-09-04T01:14:29.776Z,6.60
2022-09-04T01:17:41.743Z,5.45
2022-09-04T01:20:20.372Z,4.15
2022-09-04T01:23:19.353Z,8.88
2022-09-04T01:26:09.120Z,9.25
2022-09-04T01:28:36.064Z,5.43
2022-09-04T01:31:21.628Z,5.32
2022-09-04T01:34:16.138Z,7.07
2022-09-04T01:36:57.731Z,7.85
2022-09-04T01:39:28.186Z,5.63
2022-09-04T01:42:34.745Z,7.57
2022-09-04T01:45:02.895Z,5.88
2022-09-04T01:47:43.373Z,5.80
2022-09-04T01:50:18.332Z,5.07
2022-09-04T01:53:02.313Z,7.65
2022-09-04T01:55:50.990Z,5.50
2022-09-04T01:58:43.483Z,6.60
2022-09-04T02:01:38.523Z,8.48
2022-09-04T02:04:21.236Z,5.93
2022-09-04T02:07:27.814Z,4.88
2022-09-04T02:10:00.901Z,6.03
2022-09-04T02:12:35.964Z,4.65
2022-09-04T02:15:10.028Z,7.78
2022-09-04T02:17:46.823Z,6.75
2022-09-04T02:20:31.281Z,5.03
2022-09-04T02:23:30.230Z,5.50
2022-09-04T02:26:45.372Z,5.85
2022-09-04T02:29:25.982Z,7.47
2022-09-04T02:32:13.377Z,7.90
2022-09-04T02:34:48.069Z,5.65
2022-09-04T02:37:25.024Z,6.22
2022-09-04T02:40:37.849Z,6.25
2022-09-04T02:43:57.816Z,12.23
2022-09-04T02:46:57.269Z,6.68
2022-09-04T02:49:54.370Z,5.70
2022-09-04T02:52:59.820Z,11.40
2022-09-04T02:55:57.991Z,6.05
2022-09-04T02:58:50.379Z,10.38
2022-09-04T03:01:59.663Z,7.90
2022-09-04T03:05:12.518Z,11.98
2022-09-04T03:08:19.212Z,9.73
2022-09-04T03:11:20.363Z,7.72
2022-09-04T03:14:05.565Z,7.78
2022-09-04T03:16:54.452Z,6.95
2022-09-04T03:19:31.031Z,6.28
2022-09-04T03:22:16.359Z,10.25
2022-09-04T03:25:25.291Z,8.52
2022-09-04T03:27:52.700Z,9.02
2022-09-04T03:30:20.131Z,10.30
2022-09-04T03:32:53.002Z,7.93
2022-09-04T03:35:39.805Z,8.90
2022-09-04T03:38:18.361Z,9.82
2022-09-04T03:41:11.245Z,8.20
2022-09-04T03:43:40.887Z,8.35
2022-09-04T03:46:24.024Z,10.52
2022-09-04T03:49:06.594Z,8.05
2022-09-04T03:51:42.624Z,7.20
2022-09-04T03:54:12.863Z,10.18
2022-09-04T03:57:20.041Z,10.07
2022-09-04T04:00:18.406Z,10.30
2022-09-04T04:03:28.457Z,12.70
2022-09-04T04:06:14.916Z,8.68
2022-09-04T04:09:19.639Z,8.15
2022-09-04T04:11:53.284Z,12.85
2022-09-04T04:14:42.413Z,10.77
2022-09-04T04:17:20.534Z,8.63
2022-09-04T04:20:26.929Z,9.73
2022-09-04T04:23:21.052Z,8.45
2022-09-04T04:26:05.678Z,10.85
2022-09-04T04:29:03.137Z,8.98
2022-09-04T04:32:10.667Z,14.25
2022-09-04T04:35:16.541Z,10.00
2022-09-04T04:38:22.541Z,10.57
2022-09-04T04:41:09.888Z,17.95
2022-09-04T04:43:55.380Z,23.98
2022-09-04T04:47:15.655Z,18.90
2022-09-04T04:50:06.469Z,19.05
2022-09-04T04:52:46.152Z,46.28
2022-09-04T04:55:50.563Z,46.35
2022-09-04T04:58:40.434Z,21.05
2022-09-04T05:01:16.513Z,17.77
2022-09-04T05:03:48.937Z,13.43
2022-09-04T05:06:36.338Z,11.25
2022-09-04T05:09:23.067Z,13.57
2022-09-04T05:12:27.647Z,15.05
2022-09-04T05:15:28.624Z,10.77
2022-09-04T05:18:06.867Z,11.25
2022-09-04T05:20:38.102Z,11.85
2022-09-04T05:23:42.560Z,9.68
2022-09-04T05:26:46.315Z,12.50
2022-09-04T05:29:32.430Z,14.88
2022-09-04T05:32:08.445Z,10.82
2022-09-04T05:35:12.992Z,13.95
2022-09-04T05:38:13.981Z,10.13
2022-09-04T05:40:58.260Z,10.27
2022-09-04T05:43:31.379Z,8.40
2022-09-04T05:46:01.063Z,8.32
2022-09-04T05:49:01.915Z,8.27
2022-09-04T05:51:54.741Z,10.40
2022-09-04T05:54:49.569Z,9.73
2022-09-04T05:57:27.407Z,7.00
2022-09-04T06:00:08.061Z,9.48
2022-09-04T06:02:53.237Z,12.65
2022-09-04T06:05:29.093Z,6.93
2022-09-04T06:08:21.564Z,10.60
2022-09-04T06:11:03.082Z,11.98
2022-09-04T06:13:54.411Z,9.75
2022-09-04T06:16:42.613Z,10.02
2022-09-04T06:19:35.621Z,10.52
2022-09-04T06:22:41.688Z,9.73
2022-09-04T06:25:37.851Z,11.65
2022-09-04T06:28:16.622Z,9.13
2022-09-04T06:30:53.691Z,13.20
2022-09-04T06:33:40.491Z,9.93
2022-09-04T06:36:29.733Z,13.88
2022-09-04T06:39:18.195Z,11.25
2022-09-04T06:42:06.113Z,11.68
2022-09-04T06:45:06.856Z,12.70
2022-09-04T06:47:53.482Z,9.13
2022-09-04T06:50:39.284Z,11.55
2022-09-04T06:53:42.637Z,11.82
2022-09-04T06:56:41.278Z,13.13
2022-09-04T06:59:42.432Z,7.97
2022-09-04T07:02:31.247Z,10.40
2022-09-04T07:05:47.756Z,11.18
2022-09-04T07:08:23.956Z,9.57
2022-09-04T07:11:08.518Z,7.90
2022-09-04T07:13:49.286Z,10.32
2022-09-04T07:16:41.012Z,8.95
2022-09-04T07:19:16.663Z,10.18
2022-09-04T07:22:06.583Z,10.25
2022-09-04T07:24:48.495Z,14.60
2022-09-04T07:27:28.154Z,10.07
2022-09-04T07:29:59.926Z,7.18
2022-09-04T07:32:35.143Z,8.57
2022-09-04T07:35:37.282Z,8.30
2022-09-04T07:38:38.986Z,6.00
2022-09-04T07:41:16.880Z,8.30
2022-09-04T07:44:05.130Z,6.35
2022-09-04T07:46:40.467Z,8.65
2022-09-04T07:49:37.753Z,6.82
2022-09-04T07:52:23.403Z,6.63
2022-09-04T07:55:17.838Z,8.20
2022-09-04T07:57:58.128Z,7.07
2022-09-04T08:00:26.755Z,4.85
2022-09-04T08:03:20.589Z,5.45
2022-09-04T08:06:10.350Z,5.30
2022-09-04T08:08:43.406Z,4.63
2022-09-04T08:11:17.233Z,5.43
2022-09-04T08:14:11.411Z,6.03
2022-09-04T08:16:57.157Z,5.35
2022-09-04T08:19:29.799Z,4.53
2022-09-04T08:22:03.363Z,5.00
2022-09-04T08:24:50.239Z,4.30
2022-09-04T08:27:55.618Z,5.90
2022-09-04T08:30:23.931Z,5.07
2022-09-04T08:33:17.047Z,3.55
2022-09-04T08:35:58.050Z,3.88
2022-09-04T08:38:49.090Z,5.20
2022-09-04T08:41:50.304Z,3.63
2022-09-04T08:44:32.789Z,4.88
2022-09-04T08:47:33.756Z,5.88
2022-09-04T08:50:26.460Z,3.92
2022-09-04T08:53:12.173Z,5.50
2022-09-04T08:56:06.487Z,3.28
2022-09-04T08:59:10.081Z,5.28
2022-09-04T09:02:18.753Z,2.63
2022-09-04T09:04:55.232Z,6.63
2022-09-04T09:07:28.578Z,5.05
2022-09-04T09:10:13.092Z,7.88
2022-09-04T09:12:58.468Z,4.45
2022-09-04T09:15:54.048Z,4.85
2022-09-04T09:18:46.142Z,4.45
2022-09-04T09:21:38.212Z,3.03
2022-09-04T09:24:27.186Z,5.10
2022-09-04T09:27:31.293Z,3.50
2022-09-04T09:30:09.821Z,3.50
2022-09-04T09:33:05.673Z,4.00
2022-09-04T09:36:10.598Z,5.43
2022-09-04T09:39:06.212Z,8.35
2022-09-04T09:41:59.765Z,5.50
2022-09-04T09:45:01.621Z,9.13
2022-09-04T09:50:21.275Z,3.28
2022-09-04T09:53:13.544Z,8.70
2022-09-04T09:55:59.515Z,4.97
2022-09-04T09:58:45.513Z,4.72
2022-09-04T10:01:31.648Z,3.83
2022-09-04T10:04:30.721Z,7.90
2022-09-04T10:07:42.798Z,5.47
2022-09-04T10:10:22.421Z,5.07
2022-09-04T10:12:55.423Z,4.18
2022-09-04T10:16:01.593Z,10.25
2022-09-04T10:18:50.648Z,6.15
2022-09-04T10:21:50.837Z,2.78
2022-09-04T10:24:57.784Z,8.40
2022-09-04T10:27:35.002Z,5.25
2022-09-04T10:30:06.589Z,8.50
2022-09-04T10:32:51.972Z,2.38
2022-09-04T10:35:26.383Z,2.90
2022-09-04T10:38:05.401Z,6.03
2022-09-04T10:40:57.474Z,3.13
2022-09-04T10:43:43.370Z,3.15
2022-09-04T10:46:23.022Z,9.23
2022-09-04T10:49:21.818Z,4.40
2022-09-04T10:52:00.353Z,7.07
2022-09-04T10:55:04.747Z,3.88
2022-09-04T10:57:50.571Z,4.22
2022-09-04T11:00:22.980Z,4.18
2022-09-04T11:03:03.439Z,4.25
2022-09-04T11:05:52.155Z,4.33
2022-09-04T11:08:47.565Z,3.75
2022-09-04T11:11:33.513Z,5.47
2022-09-04T11:14:06.440Z,7.28
2022-09-04T11:17:13.330Z,5.35
2022-09-04T11:20:18.393Z,4.78
2022-09-04T11:23:12.477Z,4.40
2022-09-04T11:26:08.530Z,5.35
2022-09-04T11:28:44.234Z,4.05
2022-09-04T11:31:25.941Z,3.13
2022-09-04T11:33:58.887Z,4.35
2022-09-04T11:36:41.253Z,3.35
2022-09-04T11:39:26.273Z,6.60
2022-09-04T11:42:11.932Z,3.40
2022-09-04T11:44:50.688Z,15.90
2022-09-04T11:47:42.371Z,3.35
2022-09-04T11:50:35.206Z,2.97
2022-09-04T11:53:11.661Z,3.35
2022-09-04T11:55:57.557Z,6.03
2022-09-04T11:58:49.685Z,4.72
2022-09-04T12:01:29.748Z,2.40
2022-09-04T12:04:23.345Z,2.03
2022-09-04T12:07:14.159Z,4.50
2022-09-04T12:09:41.109Z,6.07
2022-09-04T12:12:11.603Z,5.38
2022-09-04T12:14:41.572Z,5.25
2022-09-04T12:17:44.206Z,3.97
2022-09-04T12:20:38.758Z,3.83
2022-09-04T12:23:11.638Z,4.50
2022-09-04T12:26:01.471Z,15.32
2022-09-04T12:28:38.040Z,3.08
2022-09-04T12:31:42.493Z,7.18
2022-09-04T12:34:46.819Z,4.60
2022-09-04T12:37:22.673Z,2.13
2022-09-04T12:40:01.768Z,5.20
2022-09-04T12:42:52.982Z,4.18
2022-09-04T12:45:31.287Z,3.00
2022-09-04T12:48:33.718Z,9.25
2022-09-04T12:51:13.620Z,2.95
2022-09-04T12:53:48.197Z,4.05
2022-09-04T12:56:56.331Z,5.28
2022-09-04T12:59:27.936Z,5.40
2022-09-04T13:02:01.891Z,3.45
2022-09-04T13:04:35.220Z,6.63
2022-09-04T13:07:15.907Z,4.40
2022-09-04T13:12:42.250Z,1.75
2022-09-04T13:15:14.491Z,2.65
2022-09-04T13:17:44.124Z,4.22
2022-09-04T13:20:10.985Z,8.65
2022-09-04T13:22:48.428Z,3.50
2022-09-04T13:25:42.830Z,2.75
2022-09-04T13:28:23.938Z,5.55
2022-09-04T13:31:05.923Z,3.03
2022-09-04T13:33:57.847Z,6.78
2022-09-04T13:36:54.374Z,2.03
2022-09-04T13:39:54.801Z,8.52
2022-09-04T13:42:44.747Z,12.20
2022-09-04T13:45:19.459Z,3.45
2022-09-04T13:47:53.720Z,18.67
2022-09-04T13:50:33.018Z,3.50
2022-09-04T13:53:16.052Z,6.85
2022-09-04T13:55:49.967Z,12.95
2022-09-04T13:58:20.310Z,2.97
2022-09-04T14:00:59.338Z,5.53
2022-09-04T14:03:36.917Z,2.63
2022-09-04T14:06:09.032Z,5.38
2022-09-04T14:08:43.276Z,8.07
2022-09-04T14:11:30.485Z,7.65
2022-09-04T14:14:11.913Z,3.15
2022-09-04T14:16:44.336Z,5.00
2022-09-04T14:19:40.140Z,3.35
2022-09-04T14:22:56.647Z,3.95
2022-09-04T14:25:51.237Z,4.13
2022-09-04T14:28:38.506Z,4.05
2022-09-04T14:31:33.976Z,5.43
2022-09-04T14:34:16.581Z,2.42
2022-09-04T14:37:00.505Z,3.78
2022-09-04T14:39:48.220Z,2.63
2022-09-04T14:42:24.862Z,2.50
2022-09-04T14:45:10.162Z,3.28
2022-09-04T14:48:03.655Z,2.25
2022-09-04T14:50:43.430Z,18.80
2022-09-04T14:53:10.728Z,3.45
2022-09-04T14:56:01.993Z,3.25
2022-09-04T15:03:49.807Z,5.13
2022-09-04T15:06:25.855Z,3.28
2022-09-04T15:08:55.589Z,2.05
2022-09-04T15:11:34.860Z,7.63
2022-09-04T15:14:28.547Z,2.33
2022-09-04T15:17:06.259Z,2.60
2022-09-04T15:19:53.446Z,3.88
2022-09-04T15:22:40.749Z,3.97
2022-09-04T15:25:56.838Z,14.77
2022-09-04T15:28:32.039Z,9.45
2022-09-04T15:31:21.024Z,10.43
2022-09-04T15:33:49.235Z,5.13
2022-09-04T15:36:20.962Z,6.80
2022-09-04T15:38:53.918Z,4.60
2022-09-04T15:42:09.308Z,6.07
2022-09-04T15:44:45.132Z,12.50
2022-09-04T15:47:55.859Z,3.47
2022-09-04T15:50:29.384Z,3.78
2022-09-04T15:53:25.113Z,2.83
2022-09-04T15:56:09.513Z,4.75
2022-09-04T15:58:54.247Z,3.63
2022-09-04T16:01:30.113Z,3.85
2022-09-04T16:04:07.547Z,7.40
2022-09-04T16:06:45.334Z,4.55
2022-09-04T16:09:29.199Z,17.08
2022-09-04T16:12:10.433Z,18.67
2022-09-04T16:14:56.504Z,5.18
2022-09-04T16:17:33.918Z,4.30
2022-09-04T16:20:35.928Z,2.22
2022-09-04T16:23:09.947Z,18.42
2022-09-04T16:25:50.446Z,7.63
2022-09-04T16:28:33.847Z,7.20
2022-09-04T16:31:12.437Z,6.28
2022-09-04T16:33:50.971Z,11.73
2022-09-04T16:36:22.969Z,6.75
2022-09-04T16:38:57.382Z,5.57
2022-09-04T16:41:38.877Z,9.98
2022-09-04T16:44:14.344Z,18.50
2022-09-04T16:47:15.052Z,5.82
2022-09-04T16:50:02.644Z,7.10
2022-09-04T16:52:45.018Z,3.30
2022-09-04T16:55:31.304Z,11.60
2022-09-04T16:58:35.121Z,4.93
2022-09-04T17:01:14.265Z,15.55
2022-09-04T17:03:52.320Z,6.22
2022-09-04T17:07:15.885Z,9.05
2022-09-04T17:09:50.363Z,10.48
2022-09-04T17:12:35.774Z,19.58
2022-09-04T17:15:11.539Z,8.82
2022-09-04T17:17:42.623Z,7.70
2022-09-04T17:20:23.843Z,4.88
2022-09-04T17:29:01.921Z,24.73
2022-09-04T17:29:18.361Z,25.20
2022-09-04T17:30:04.749Z,13.25
2022-09-04T17:36:19.189Z,4.05
2022-09-04T17:40:43.703Z,12.23
2022-09-04T17:41:31.303Z,11.32
2022-09-04T17:42:15.690Z,13.90
2022-09-04T17:44:56.777Z,10.75
2022-09-04T17:47:29.073Z,13.20
2022-09-04T17:49:57.179Z,10.65
2022-09-04T17:52:28.263Z,16.95
2022-09-04T17:55:09.200Z,10.80
2022-09-04T17:58:13.811Z,23.42
2022-09-04T18:01:14.220Z,7.65
2022-09-04T18:04:19.980Z,13.55
2022-09-04T18:06:51.755Z,17.35
2022-09-04T18:09:51.657Z,11.13
2022-09-04T18:12:52.197Z,18.10
2022-09-04T18:15:33.651Z,25.05
2022-09-04T18:18:13.518Z,34.35
2022-09-04T18:20:46.936Z,18.55
2022-09-04T18:23:51.712Z,24.25
2022-09-04T18:26:34.042Z,27.75
2022-09-04T18:30:28.809Z,20.67
2022-09-04T18:37:22.288Z,15.00
2022-09-04T18:37:25.654Z,31.50
2022-09-04T18:38:34.073Z,37.63
2022-09-04T18:43:12.246Z,21.92
2022-09-04T18:50:20.770Z,25.70
2022-09-04T18:50:30.653Z,22.42
2022-09-04T18:50:44.949Z,11.15
2022-09-04T18:53:00.770Z,19.65
2022-09-04T18:55:48.206Z,22.27
2022-09-04T18:58:15.062Z,11.68
2022-09-04T19:01:03.975Z,20.92
2022-09-04T19:03:48.346Z,15.20
2022-09-04T19:06:36.469Z,17.92
2022-09-04T19:09:19.775Z,20.55
2022-09-04T19:11:54.312Z,30.90
2022-09-04T19:14:29.149Z,33.65
2022-09-04T19:17:03.301Z,27.33
2022-09-04T19:19:37.224Z,23.42
2022-09-04T19:22:18.284Z,13.63
2022-09-04T19:24:51.855Z,13.03
2022-09-04T19:27:45.738Z,18.48
2022-09-04T19:30:20.114Z,11.38
2022-09-04T19:32:57.898Z,17.30
2022-09-04T19:35:42.487Z,21.80
2022-09-04T19:41:19.843Z,11.15
2022-09-04T19:46:01.039Z,14.75
2022-09-04T19:46:18.862Z,21.73
2022-09-04T19:47:27.152Z,20.48
2022-09-04T19:53:22.330Z,15.25
2022-09-04T19:53:35.888Z,15.95
2022-09-04T19:55:50.203Z,19.08
2022-09-04T19:58:44.235Z,9.00
2022-09-04T20:01:18.117Z,12.63
2022-09-04T20:03:58.978Z,20.52
2022-09-04T20:06:36.512Z,21.70
2022-09-04T20:09:30.828Z,16.90
2022-09-04T20:12:41.294Z,17.65
2022-09-04T20:15:13.118Z,16.85
2022-09-04T20:20:54.785Z,17.15
2022-09-04T20:23:35.205Z,15.68
2022-09-04T20:26:52.727Z,25.13
2022-09-04T20:29:29.542Z,29.92
2022-09-04T20:32:01.260Z,19.30
2022-09-04T20:34:31.362Z,18.25
2022-09-04T20:37:28.580Z,20.02
2022-09-04T20:40:30.276Z,18.35
2022-09-04T20:43:03.220Z,16.02
2022-09-04T20:48:24.380Z,20.55
2022-09-04T20:52:50.863Z,20.90
2022-09-04T20:52:56.254Z,26.63
2022-09-04T20:54:40.038Z,21.33
2022-09-04T21:03:15.216Z,30.65
2022-09-04T21:03:39.053Z,25.42
2022-09-04T21:06:25.286Z,15.50
2022-09-04T21:09:09.546Z,13.85
2022-09-04T21:11:47.298Z,15.60
2022-09-04T21:14:39.706Z,20.10
2022-09-04T21:17:59.481Z,18.60
2022-09-04T21:20:59.852Z,18.23
2022-09-04T21:23:36.569Z,16.10
2022-09-04T21:26:03.569Z,54.60
2022-09-04T21:32:39.589Z,21.27
2022-09-04T21:35:27.280Z,19.10
2022-09-04T21:38:14.821Z,18.95
2022-09-04T21:41:09.366Z,12.70
2022-09-04T21:43:58.294Z,16.52
2022-09-04T21:46:49.747Z,14.27
2022-09-04T21:49:28.782Z,12.63
2022-09-04T21:52:13.990Z,11.07
2022-09-04T21:58:52.406Z,12.00
2022-09-04T22:02:30.531Z,13.63
2022-09-04T22:02:36.515Z,23.92
2022-09-04T22:03:54.805Z,18.00
2022-09-04T22:07:45.793Z,12.93
2022-09-04T22:13:30.445Z,10.98
2022-09-04T22:13:40.087Z,10.45
2022-09-04T22:15:45.957Z,12.80
2022-09-04T22:18:40.224Z,13.63
2022-09-04T22:21:26.840Z,9.00
2022-09-04T22:23:56.461Z,10.48
2022-09-04T22:27:01.521Z,14.00
2022-09-04T22:29:58.179Z,12.48
2022-09-04T22:32:51.165Z,13.80
2022-09-04T22:35:51.734Z,11.75
2022-09-04T22:38:50.568Z,14.70
2022-09-04T22:41:26.464Z,15.65
2022-09-04T22:44:15.562Z,13.02
2022-09-04T22:47:26.248Z,10.30
2022-09-04T22:50:39.108Z,14.13
2022-09-04T22:53:35.254Z,9.25
2022-09-04T22:56:23.695Z,12.85
2022-09-04T22:59:25.667Z,6.90
2022-09-04T23:02:13.449Z,6.80
2022-09-04T23:04:48.158Z,7.47
2022-09-04T23:12:26.801Z,11.65
2022-09-04T23:13:59.329Z,7.30
2022-09-04T23:14:07.698Z,11.90
2022-09-04T23:17:17.482Z,6.05
2022-09-04T23:26:32.225Z,7.63
2022-09-04T23:26:43.056Z,8.90
2022-09-04T23:26:57.852Z,4.38
2022-09-04T23:29:41.233Z,9.60
2022-09-04T23:32:16.281Z,13.38
2022-09-04T23:35:14.727Z,7.22
2022-09-04T23:38:16.748Z,8.18
2022-09-04T23:40:53.445Z,6.75
2022-09-04T23:44:04.307Z,4.30
2022-09-04T23:46:52.473Z,5.65
2022-09-04T23:49:37.980Z,4.13
2022-09-04T23:52:48.687Z,6.35
2022-09-04T23:55:56.124Z,12.32
2022-09-04T23:59:16.750Z,14.07
